Port Acres, Texas
Current Conditions -  °F | °C
As of 7:53 PM on Wednesday 22 Oct 2014 (Local Time) from KBPT Reporting Station
Clear Clear  
Wind Chill: 22°   Ceiling: Unl
Heat Index: 22°   Visibility: 10mi
Dew Point: 16°   Wind: 7mph
Humidity: 66%   Direction: 30°NNE
Pressure: 30.05"   Gusts: NA
Location:  29.7569°N, 94.1898°W
Report Text: KBPT 230053Z 03006KT 10SM CLR 22/16 A3005 RMK AO2 SLP175 T02220156
Loading
Personal Weather Stations






























Interactive Weather Map
Tropical Storm Tracking
New forecast layout! Learn more

10-Day Weather Forecast

Advertisements
Track Severe Weather on mobile